createdAt,value
2023-01-27T00:01:00.794Z,102883.44
2023-01-27T00:03:27.380Z,102880.16
2023-01-27T00:05:53.964Z,102875.06
2023-01-27T00:08:20.568Z,102870.00
2023-01-27T00:10:47.134Z,102875.28
2023-01-27T00:13:32.380Z,102873.59
2023-01-27T00:15:59.200Z,102866.78
2023-01-27T00:18:25.978Z,102870.44
2023-01-27T00:21:11.310Z,102866.97
2023-01-27T00:23:56.452Z,102866.22
2023-01-27T00:26:23.219Z,102858.25
2023-01-27T00:28:50.158Z,102858.94
2023-01-27T00:31:35.905Z,102844.03
2023-01-27T00:34:08.551Z,102838.91
2023-01-27T00:36:36.712Z,102836.84
2023-01-27T00:39:03.503Z,102835.94
2023-01-27T00:41:30.171Z,102835.78
2023-01-27T00:43:56.735Z,102830.56
2023-01-27T00:46:24.409Z,102827.03
2023-01-27T00:48:54.299Z,102820.81
2023-01-27T00:51:21.048Z,102824.19
2023-01-27T00:53:48.113Z,102815.50
2023-01-27T00:56:14.902Z,102813.72
2023-01-27T00:58:41.453Z,102804.03
2023-01-27T01:01:10.562Z,102803.56
2023-01-27T01:03:37.402Z,102795.75
2023-01-27T01:06:06.063Z,102789.81
2023-01-27T01:08:33.746Z,102783.81
2023-01-27T01:11:00.431Z,102781.03
2023-01-27T01:13:30.454Z,102776.53
2023-01-27T01:15:57.441Z,102779.00
2023-01-27T01:18:24.508Z,102783.66
2023-01-27T01:20:51.048Z,102773.44
2023-01-27T01:23:17.660Z,102764.81
2023-01-27T01:25:51.944Z,102763.16
2023-01-27T01:28:18.466Z,102753.75
2023-01-27T01:30:45.079Z,102755.44
2023-01-27T01:33:11.947Z,102747.56
2023-01-27T01:35:39.173Z,102749.25
2023-01-27T01:38:06.183Z,102750.16
2023-01-27T01:40:33.040Z,102750.97
2023-01-27T01:43:00.904Z,102751.69
2023-01-27T01:45:33.831Z,102750.38
2023-01-27T01:48:01.975Z,102749.50
2023-01-27T01:50:29.105Z,102752.00
2023-01-27T01:52:56.099Z,102748.59
2023-01-27T01:55:23.451Z,102744.22
2023-01-27T01:57:50.560Z,102744.19
2023-01-27T02:00:17.639Z,102740.69
2023-01-27T02:02:44.597Z,102742.09
2023-01-27T02:05:17.438Z,102747.28
2023-01-27T02:08:02.552Z,102743.97
2023-01-27T02:10:29.145Z,102747.28
2023-01-27T02:12:56.165Z,102747.28
2023-01-27T02:15:22.811Z,102745.47
2023-01-27T02:17:49.615Z,102746.28
2023-01-27T02:20:18.960Z,102740.03
2023-01-27T02:22:45.496Z,102741.09
2023-01-27T02:25:18.259Z,102733.25
2023-01-27T02:27:44.810Z,102739.22
2023-01-27T02:30:11.447Z,102741.72
2023-01-27T02:32:39.982Z,102730.41
2023-01-27T02:35:08.392Z,102729.50
2023-01-27T02:37:35.298Z,102729.56
2023-01-27T02:40:03.110Z,102721.94
2023-01-27T02:42:29.734Z,102718.53
2023-01-27T02:44:56.326Z,102715.97
2023-01-27T02:47:23.072Z,102712.63
2023-01-27T02:49:49.687Z,102703.81
2023-01-27T02:52:16.238Z,102711.31
2023-01-27T02:54:42.842Z,102710.44
2023-01-27T02:57:09.389Z,102705.13
2023-01-27T02:59:36.036Z,102705.88
2023-01-27T03:02:02.575Z,102693.53
2023-01-27T03:04:29.115Z,102684.16
2023-01-27T03:06:55.674Z,102692.56
2023-01-27T03:09:22.240Z,102686.53
2023-01-27T03:12:07.388Z,102689.13
2023-01-27T03:14:52.313Z,102696.16
2023-01-27T03:17:37.399Z,102691.03
2023-01-27T03:20:04.243Z,102682.47
2023-01-27T03:22:30.784Z,102682.31
2023-01-27T03:24:57.419Z,102682.72
2023-01-27T03:27:23.946Z,102681.06
2023-01-27T03:29:56.710Z,102679.41
2023-01-27T03:32:23.983Z,102682.88
2023-01-27T03:34:50.561Z,102683.44
2023-01-27T03:37:35.674Z,102681.63
2023-01-27T03:40:20.816Z,102676.56
2023-01-27T03:43:06.010Z,102672.91
2023-01-27T03:45:51.272Z,102673.56
2023-01-27T03:48:20.976Z,102679.56
2023-01-27T03:50:53.273Z,102683.63
2023-01-27T03:53:20.454Z,102683.72
2023-01-27T03:55:47.440Z,102684.72
2023-01-27T03:58:21.711Z,102682.91
2023-01-27T04:00:52.800Z,102694.81
2023-01-27T04:03:38.468Z,102679.38
2023-01-27T04:06:24.479Z,102674.94
2023-01-27T04:08:51.169Z,102662.72
2023-01-27T04:11:36.404Z,102654.13
2023-01-27T04:14:06.927Z,102647.19
2023-01-27T04:16:34.539Z,102649.88
2023-01-27T04:19:01.185Z,102661.72
2023-01-27T04:21:27.782Z,102654.94
2023-01-27T04:23:54.437Z,102650.84
2023-01-27T04:26:21.630Z,102649.03
2023-01-27T04:28:48.937Z,102641.16
2023-01-27T04:31:16.254Z,102636.97
2023-01-27T04:33:43.609Z,102633.47
2023-01-27T04:36:10.496Z,102631.97
2023-01-27T04:38:37.272Z,102625.75
2023-01-27T04:41:04.080Z,102627.94
2023-01-27T04:43:30.625Z,102632.28
2023-01-27T04:45:57.205Z,102633.03
2023-01-27T04:48:24.108Z,102623.59
2023-01-27T04:50:50.695Z,102615.16
2023-01-27T04:53:17.255Z,102614.13
2023-01-27T04:55:46.611Z,102610.69
2023-01-27T04:58:13.647Z,102608.59
2023-01-27T05:00:40.480Z,102595.63
2023-01-27T05:03:09.564Z,102599.94
2023-01-27T05:05:36.455Z,102594.72
2023-01-27T05:08:07.083Z,102593.16
2023-01-27T05:10:33.651Z,102589.81
2023-01-27T05:13:01.936Z,102592.28
2023-01-27T05:15:29.049Z,102586.97
2023-01-27T05:17:55.601Z,102584.13
2023-01-27T05:20:22.438Z,102579.44
2023-01-27T05:22:50.657Z,102576.84
2023-01-27T05:25:17.245Z,102574.38
2023-01-27T05:27:44.103Z,102582.22
2023-01-27T05:30:10.892Z,102578.91
2023-01-27T05:32:37.478Z,102577.03
2023-01-27T05:35:04.153Z,102576.38
2023-01-27T05:37:30.720Z,102572.19
2023-01-27T05:39:58.822Z,102567.88
2023-01-27T05:42:25.350Z,102566.09
2023-01-27T05:44:51.874Z,102566.97
2023-01-27T05:47:18.483Z,102569.94
2023-01-27T05:49:45.056Z,102575.88
2023-01-27T05:52:11.618Z,102571.75
2023-01-27T05:54:38.210Z,102567.59
2023-01-27T05:57:04.748Z,102568.31
2023-01-27T05:59:31.318Z,102569.41
2023-01-27T06:01:57.873Z,102566.09
2023-01-27T06:04:24.488Z,102573.78
2023-01-27T06:06:51.001Z,102568.56
2023-01-27T06:09:17.516Z,102565.88
2023-01-27T06:11:44.078Z,102555.59
2023-01-27T06:14:10.671Z,102546.00
2023-01-27T06:16:37.245Z,102543.56
2023-01-27T06:19:03.791Z,102542.00
2023-01-27T06:21:30.323Z,102544.53
2023-01-27T06:23:58.364Z,102546.34
2023-01-27T06:26:25.049Z,102542.00
2023-01-27T06:28:51.628Z,102546.41
2023-01-27T06:31:19.908Z,102555.97
2023-01-27T06:33:46.526Z,102555.06
2023-01-27T06:36:14.315Z,102552.41
2023-01-27T06:38:41.091Z,102555.09
2023-01-27T06:41:07.691Z,102561.16
2023-01-27T06:43:34.582Z,102560.38
2023-01-27T06:46:03.028Z,102548.22
2023-01-27T06:48:31.023Z,102536.16
2023-01-27T06:50:58.460Z,102529.28
2023-01-27T06:53:25.088Z,102530.97
2023-01-27T06:55:58.636Z,102534.75
2023-01-27T06:58:25.659Z,102534.31
2023-01-27T07:00:52.421Z,102533.38
2023-01-27T07:03:19.016Z,102534.56
2023-01-27T07:05:45.586Z,102534.00
2023-01-27T07:08:12.218Z,102530.19
2023-01-27T07:10:39.532Z,102531.84
2023-01-27T07:13:06.255Z,102533.53
2023-01-27T07:15:32.985Z,102536.81
2023-01-27T07:18:00.367Z,102530.94
2023-01-27T07:20:29.732Z,102529.78
2023-01-27T07:22:57.281Z,102524.97
2023-01-27T07:25:23.814Z,102509.88
2023-01-27T07:27:50.567Z,102515.38
2023-01-27T07:30:17.449Z,102514.03
2023-01-27T07:32:43.974Z,102510.75
2023-01-27T07:35:10.538Z,102498.13
2023-01-27T07:37:38.337Z,102501.94
2023-01-27T07:40:05.417Z,102504.06
2023-01-27T07:42:32.044Z,102496.69
2023-01-27T07:44:58.559Z,102495.34
2023-01-27T07:47:25.192Z,102488.91
2023-01-27T07:49:51.872Z,102486.94
2023-01-27T07:52:18.477Z,102474.13
2023-01-27T07:54:45.141Z,102475.50
2023-01-27T07:57:11.669Z,102466.31
2023-01-27T07:59:38.256Z,102471.53
2023-01-27T08:02:04.919Z,102478.84
2023-01-27T08:04:37.452Z,102477.31
2023-01-27T08:07:10.078Z,102480.13
2023-01-27T08:09:36.660Z,102478.56
2023-01-27T08:12:03.241Z,102479.47
2023-01-27T08:14:29.799Z,102482.72
2023-01-27T08:16:56.389Z,102479.97
2023-01-27T08:19:22.948Z,102482.09
2023-01-27T08:21:49.475Z,102474.63
2023-01-27T08:24:16.036Z,102478.81
2023-01-27T08:26:42.614Z,102495.25
2023-01-27T08:29:09.137Z,102485.84
2023-01-27T08:31:35.714Z,102472.31
2023-01-27T08:34:02.344Z,102479.38
2023-01-27T08:36:28.940Z,102467.56
2023-01-27T08:38:55.850Z,102465.97
2023-01-27T08:41:23.965Z,102461.63
2023-01-27T08:43:50.720Z,102463.53
2023-01-27T08:46:17.678Z,102468.53
2023-01-27T08:48:44.445Z,102469.94
2023-01-27T08:51:12.661Z,102466.56
2023-01-27T08:53:39.611Z,102468.94
2023-01-27T08:56:07.787Z,102465.03
2023-01-27T08:58:35.077Z,102472.19
2023-01-27T09:01:02.602Z,102470.22
2023-01-27T09:03:30.335Z,102462.84
2023-01-27T09:05:57.204Z,102460.88
2023-01-27T09:08:24.042Z,102457.38
2023-01-27T09:10:50.667Z,102458.69
2023-01-27T09:13:18.939Z,102457.25
2023-01-27T09:15:46.546Z,102450.09
2023-01-27T09:18:13.150Z,102453.53
2023-01-27T09:20:39.747Z,102452.81
2023-01-27T09:23:06.370Z,102439.84
2023-01-27T09:25:32.897Z,102444.72
2023-01-27T09:28:00.028Z,102439.72
2023-01-27T09:30:27.528Z,102435.88
2023-01-27T09:32:57.600Z,102439.84
2023-01-27T09:35:24.347Z,102434.63
2023-01-27T09:37:54.307Z,102433.03
2023-01-27T09:40:32.006Z,102431.06
2023-01-27T09:43:17.420Z,102426.03
2023-01-27T09:46:01.895Z,102430.97
2023-01-27T09:48:37.526Z,102428.38
2023-01-27T09:51:32.628Z,102422.94
2023-01-27T09:54:18.608Z,102420.81
2023-01-27T09:57:08.770Z,102431.81
2023-01-27T09:59:38.333Z,102424.03
2023-01-27T10:02:11.256Z,102421.03
2023-01-27T10:04:43.898Z,102407.41
2023-01-27T10:07:23.331Z,102416.41
2023-01-27T10:09:59.166Z,102412.22
2023-01-27T10:12:44.583Z,102413.44
2023-01-27T10:15:14.119Z,102411.34
2023-01-27T10:17:53.318Z,102407.13
2023-01-27T10:20:35.107Z,102401.75
2023-01-27T10:23:34.210Z,102411.34
2023-01-27T10:26:12.447Z,102398.69
2023-01-27T10:28:47.946Z,102396.94
2023-01-27T10:31:24.012Z,102391.19
2023-01-27T10:33:54.928Z,102379.44
2023-01-27T10:36:26.502Z,102365.28
2023-01-27T10:38:56.050Z,102360.84
2023-01-27T10:41:40.764Z,102365.22
2023-01-27T10:44:23.206Z,102370.59
2023-01-27T10:47:08.577Z,102369.91
2023-01-27T10:49:35.140Z,102382.16
2023-01-27T10:52:09.912Z,102381.28
2023-01-27T10:54:42.063Z,102375.34
2023-01-27T10:57:19.191Z,102377.03
2023-01-27T11:00:14.344Z,102364.81
2023-01-27T11:02:45.847Z,102363.03
2023-01-27T11:05:17.434Z,102348.38
2023-01-27T11:07:47.436Z,102334.31
2023-01-27T11:10:17.199Z,102337.53
2023-01-27T11:12:47.338Z,102341.00
2023-01-27T11:15:34.026Z,102334.75
2023-01-27T11:18:16.229Z,102333.31
2023-01-27T11:20:45.922Z,102319.88
2023-01-27T11:23:17.805Z,102325.38
2023-01-27T11:26:03.115Z,102307.81
2023-01-27T11:28:37.547Z,102295.03
2023-01-27T11:31:23.082Z,102304.50
2023-01-27T11:33:52.465Z,102292.16
2023-01-27T11:36:18.965Z,102279.00
2023-01-27T11:38:45.870Z,102273.41
2023-01-27T11:41:12.766Z,102277.03
2023-01-27T11:43:40.195Z,102267.78
2023-01-27T11:46:07.809Z,102265.50
2023-01-27T11:48:42.539Z,102259.41
2023-01-27T11:51:22.970Z,102260.75
2023-01-27T11:53:53.550Z,102258.47
2023-01-27T11:56:20.272Z,102257.69
2023-01-27T11:59:02.167Z,102269.28
2023-01-27T12:01:34.963Z,102258.19
2023-01-27T12:04:07.357Z,102253.22
2023-01-27T12:06:55.492Z,102250.00
2023-01-27T12:09:33.178Z,102234.31
2023-01-27T12:12:11.912Z,102249.19
2023-01-27T12:14:38.574Z,102249.28
2023-01-27T12:17:06.032Z,102246.94
2023-01-27T12:19:36.035Z,102247.09
2023-01-27T12:22:07.239Z,102248.06
2023-01-27T12:24:36.260Z,102246.53
2023-01-27T12:27:04.581Z,102247.50
2023-01-27T12:29:37.635Z,102247.59
2023-01-27T12:32:04.393Z,102241.59
2023-01-27T12:34:36.234Z,102241.03
2023-01-27T12:37:04.574Z,102228.19
2023-01-27T12:39:57.643Z,102230.91
2023-01-27T12:42:53.489Z,102220.56
2023-01-27T12:45:21.541Z,102220.53
2023-01-27T12:47:57.079Z,102206.75
2023-01-27T12:50:25.102Z,102203.31
2023-01-27T12:53:03.380Z,102200.81
2023-01-27T12:55:38.888Z,102202.50
2023-01-27T12:58:05.701Z,102201.66
2023-01-27T13:00:33.678Z,102183.09
2023-01-27T13:03:04.638Z,102182.19
2023-01-27T13:05:36.025Z,102171.00
2023-01-27T13:08:02.582Z,102156.31
2023-01-27T13:10:29.141Z,102148.56
2023-01-27T13:12:57.349Z,102150.34
2023-01-27T13:15:25.390Z,102146.16
2023-01-27T13:17:53.263Z,102143.53
2023-01-27T13:20:25.483Z,102141.00
2023-01-27T13:22:59.962Z,102146.16
2023-01-27T13:25:29.681Z,102142.75
2023-01-27T13:27:59.402Z,102136.72
2023-01-27T13:30:29.150Z,102137.63
2023-01-27T13:32:59.701Z,102122.09
2023-01-27T13:35:31.525Z,102121.22
2023-01-27T13:38:04.794Z,102119.66
2023-01-27T13:40:37.203Z,102126.59
2023-01-27T13:43:23.579Z,102114.53
2023-01-27T13:46:00.530Z,102110.25
2023-01-27T13:48:29.740Z,102101.59
2023-01-27T13:51:09.924Z,102105.09
2023-01-27T13:53:36.872Z,102104.97
2023-01-27T13:56:09.764Z,102094.69
2023-01-27T13:58:46.959Z,102105.00
2023-01-27T14:01:49.070Z,102108.47
2023-01-27T14:04:34.281Z,102092.06
2023-01-27T14:07:05.943Z,102096.47
2023-01-27T14:09:40.642Z,102096.47
2023-01-27T14:12:22.647Z,102089.53
2023-01-27T14:14:58.132Z,102084.34
2023-01-27T14:17:34.650Z,102081.66
2023-01-27T14:20:36.550Z,102060.00
2023-01-27T14:23:21.937Z,102060.06
2023-01-27T14:25:54.767Z,102069.63
2023-01-27T14:28:24.173Z,102072.22
2023-01-27T14:31:11.505Z,102067.03
2023-01-27T14:33:42.955Z,102056.63
2023-01-27T14:36:13.368Z,102055.66
2023-01-27T14:38:39.860Z,102055.59
2023-01-27T14:41:09.529Z,102050.41
2023-01-27T14:43:40.297Z,102057.38
2023-01-27T14:46:25.652Z,102064.25
2023-01-27T14:49:01.304Z,102071.19
2023-01-27T14:51:46.071Z,102078.13
2023-01-27T14:54:15.466Z,102076.34
2023-01-27T14:57:00.383Z,102076.34
2023-01-27T14:59:42.204Z,102076.41
2023-01-27T15:02:21.098Z,102079.00
2023-01-27T15:04:53.785Z,102079.88
2023-01-27T15:07:35.144Z,102089.38
2023-01-27T15:10:04.826Z,102072.03
2023-01-27T15:12:37.540Z,102079.78
2023-01-27T15:15:19.508Z,102073.75
2023-01-27T15:17:55.331Z,102080.66
2023-01-27T15:20:31.223Z,102081.53
2023-01-27T15:23:16.477Z,102083.25
2023-01-27T15:25:57.547Z,102085.00
2023-01-27T15:28:28.676Z,102085.91
2023-01-27T15:31:14.044Z,102092.78
2023-01-27T15:34:09.768Z,102092.78
2023-01-27T15:36:40.510Z,102090.19
2023-01-27T15:39:10.061Z,102090.19
2023-01-27T15:41:36.797Z,102088.44
2023-01-27T15:44:25.706Z,102086.69
2023-01-27T15:46:56.400Z,102088.41
2023-01-27T15:49:24.703Z,102086.66
2023-01-27T15:51:53.464Z,102087.47
2023-01-27T15:54:27.885Z,102081.44
2023-01-27T15:56:55.173Z,102076.22
2023-01-27T15:59:26.702Z,102084.00
2023-01-27T16:02:05.252Z,102080.50
2023-01-27T16:04:33.319Z,102069.19
2023-01-27T16:07:04.420Z,102072.66
2023-01-27T16:09:34.262Z,102076.13
2023-01-27T16:12:02.322Z,102078.75
2023-01-27T16:14:39.719Z,102074.38
2023-01-27T16:17:18.436Z,102070.00
2023-01-27T16:20:00.144Z,102069.91
2023-01-27T16:22:28.818Z,102080.31
2023-01-27T16:24:58.868Z,102082.81
2023-01-27T16:27:31.413Z,102082.78
2023-01-27T16:29:58.779Z,102084.53
2023-01-27T16:32:29.927Z,102087.06
2023-01-27T16:34:59.597Z,102078.31
2023-01-27T16:37:28.350Z,102086.88
2023-01-27T16:40:14.937Z,102092.00
2023-01-27T16:43:01.734Z,102084.13
2023-01-27T16:45:30.666Z,102081.47
2023-01-27T16:47:59.323Z,102084.81
2023-01-27T16:50:36.714Z,102078.72
2023-01-27T16:53:05.379Z,102079.53
2023-01-27T16:55:31.956Z,102076.81
2023-01-27T16:57:59.974Z,102086.97
2023-01-27T17:00:28.644Z,102074.78
2023-01-27T17:02:57.121Z,102066.94
2023-01-27T17:05:23.695Z,102064.25
2023-01-27T17:08:02.534Z,102062.41
2023-01-27T17:10:34.754Z,102066.56
2023-01-27T17:13:01.732Z,102069.09
2023-01-27T17:15:29.080Z,102063.97
2023-01-27T17:17:56.371Z,102057.97
2023-01-27T17:20:22.960Z,102063.97
2023-01-27T17:22:54.240Z,102062.16
2023-01-27T17:25:23.513Z,102050.09
2023-01-27T17:27:50.167Z,102055.25
2023-01-27T17:30:24.413Z,102048.31
2023-01-27T17:32:58.437Z,102053.53
2023-01-27T17:35:36.259Z,102035.41
2023-01-27T17:38:05.684Z,102031.06
2023-01-27T17:40:35.551Z,102025.06
2023-01-27T17:43:02.167Z,102014.44
2023-01-27T17:45:30.099Z,102022.13
2023-01-27T17:48:00.529Z,102024.75
2023-01-27T17:50:38.192Z,102017.13
2023-01-27T17:53:10.652Z,102014.59
2023-01-27T17:55:37.593Z,102021.44
2023-01-27T17:58:05.683Z,102028.41
2023-01-27T18:00:35.660Z,102032.75
2023-01-27T18:03:09.678Z,102023.28
2023-01-27T18:05:38.172Z,102008.50
2023-01-27T18:08:05.235Z,102002.41
2023-01-27T18:10:34.854Z,102016.31
2023-01-27T18:13:12.503Z,102013.00
2023-01-27T18:15:39.285Z,102026.91
2023-01-27T18:18:28.309Z,102020.97
2023-01-27T18:21:01.376Z,102005.47
2023-01-27T18:23:43.377Z,102007.31
2023-01-27T18:26:15.977Z,102003.91
2023-01-27T18:28:43.196Z,102007.34
2023-01-27T18:31:15.720Z,102021.22
2023-01-27T18:33:43.769Z,102018.53
2023-01-27T18:36:22.351Z,102017.66
2023-01-27T18:38:50.544Z,102019.16
2023-01-27T18:41:29.056Z,102006.94
2023-01-27T18:43:56.425Z,102003.28
2023-01-27T18:46:23.265Z,102004.97
2023-01-27T18:48:49.900Z,102010.13
2023-01-27T18:51:17.130Z,102018.69
2023-01-27T18:53:43.725Z,102015.97
2023-01-27T18:56:10.968Z,102009.88
2023-01-27T18:58:38.615Z,102007.09
2023-01-27T19:01:18.737Z,102002.81
2023-01-27T19:03:45.554Z,102002.06
2023-01-27T19:06:15.251Z,102006.47
2023-01-27T19:08:42.150Z,102002.56
2023-01-27T19:11:15.526Z,102004.44
2023-01-27T19:13:43.087Z,101999.22
2023-01-27T19:16:12.454Z,102000.69
2023-01-27T19:18:40.339Z,102003.09
2023-01-27T19:21:06.953Z,102002.25
2023-01-27T19:23:33.550Z,102003.72
2023-01-27T19:26:01.252Z,102000.19
2023-01-27T19:28:32.088Z,101988.19
2023-01-27T19:30:59.208Z,101982.28
2023-01-27T19:33:26.938Z,101982.41
2023-01-27T19:35:54.568Z,101996.19
2023-01-27T19:38:21.874Z,101998.72
2023-01-27T19:40:48.431Z,101998.72
2023-01-27T19:43:15.500Z,102004.75
2023-01-27T19:45:42.254Z,102006.44
2023-01-27T19:48:13.439Z,102001.31
2023-01-27T19:50:40.160Z,102001.13
2023-01-27T19:53:06.824Z,102000.28
2023-01-27T19:55:33.906Z,102003.47
2023-01-27T19:58:00.561Z,102015.53
2023-01-27T20:00:28.576Z,102012.94
2023-01-27T20:02:56.023Z,102004.16
2023-01-27T20:05:23.265Z,102022.25
2023-01-27T20:07:50.307Z,102026.69
2023-01-27T20:10:18.416Z,102026.84
2023-01-27T20:12:45.965Z,102024.38
2023-01-27T20:15:17.441Z,102013.16
2023-01-27T20:17:44.293Z,102014.88
2023-01-27T20:20:11.019Z,102011.50
2023-01-27T20:22:37.519Z,102025.31
2023-01-27T20:25:04.450Z,102030.59
2023-01-27T20:27:31.090Z,102028.91
2023-01-27T20:29:57.648Z,102027.19
2023-01-27T20:32:24.523Z,102025.50
2023-01-27T20:34:51.234Z,102032.53
2023-01-27T20:37:17.766Z,102024.78
2023-01-27T20:39:44.263Z,102027.50
2023-01-27T20:42:10.770Z,102017.16
2023-01-27T20:44:37.336Z,102014.59
2023-01-27T20:47:03.869Z,102006.91
2023-01-27T20:49:30.555Z,102009.56
2023-01-27T20:51:57.185Z,102012.22
2023-01-27T20:54:23.774Z,102005.41
2023-01-27T20:56:50.275Z,102004.63
2023-01-27T20:59:16.760Z,102017.78
2023-01-27T21:01:44.989Z,102014.44
2023-01-27T21:04:11.668Z,102009.44
2023-01-27T21:06:38.299Z,102009.47
2023-01-27T21:09:04.980Z,102016.91
2023-01-27T21:11:31.606Z,102007.03
2023-01-27T21:13:58.259Z,102000.06
2023-01-27T21:16:24.991Z,101999.31
2023-01-27T21:18:51.870Z,101994.94
2023-01-27T21:21:27.079Z,102011.34
2023-01-27T21:23:54.296Z,102007.84
2023-01-27T21:26:20.854Z,102002.72
2023-01-27T21:28:47.640Z,102002.72
2023-01-27T21:31:16.462Z,101998.50
2023-01-27T21:33:45.726Z,101995.13
2023-01-27T21:36:12.596Z,102004.72
2023-01-27T21:38:39.392Z,101996.19
2023-01-27T21:41:07.025Z,101990.28
2023-01-27T21:43:52.303Z,101977.38
2023-01-27T21:46:19.300Z,101979.19
2023-01-27T21:48:46.079Z,101983.59
2023-01-27T21:51:12.831Z,101980.19
2023-01-27T21:53:39.612Z,101988.88
2023-01-27T21:56:06.813Z,101987.19
2023-01-27T21:58:33.439Z,101986.28
2023-01-27T22:01:10.093Z,101987.13
2023-01-27T22:03:37.480Z,101992.34
2023-01-27T22:06:05.578Z,101990.59
2023-01-27T22:08:32.238Z,101986.28
2023-01-27T22:11:02.283Z,101979.44
2023-01-27T22:13:28.883Z,101974.25
2023-01-27T22:15:55.684Z,101973.38
2023-01-27T22:18:22.385Z,101962.13
2023-01-27T22:20:48.996Z,101967.34
2023-01-27T22:23:16.704Z,101965.69
2023-01-27T22:25:47.512Z,101957.13
2023-01-27T22:28:14.018Z,101964.09
2023-01-27T22:30:40.562Z,101971.03
2023-01-27T22:33:07.115Z,101974.47
2023-01-27T22:35:33.723Z,101976.16
2023-01-27T22:38:00.551Z,101974.34
2023-01-27T22:40:27.444Z,101982.69
2023-01-27T22:42:54.023Z,101983.91
2023-01-27T22:45:20.564Z,101985.59
2023-01-27T22:47:47.218Z,101978.69
2023-01-27T22:50:13.890Z,101969.09
2023-01-27T22:52:40.562Z,101962.19
2023-01-27T22:55:08.341Z,101967.25
2023-01-27T22:57:35.136Z,101963.84
2023-01-27T23:00:02.119Z,101969.91
2023-01-27T23:02:29.916Z,101975.09
2023-01-27T23:04:56.983Z,101974.19
2023-01-27T23:07:23.712Z,101974.22
2023-01-27T23:09:50.359Z,101979.38
2023-01-27T23:12:17.052Z,101986.16
2023-01-27T23:14:43.667Z,101986.09
2023-01-27T23:17:10.337Z,101977.38
2023-01-27T23:19:36.868Z,101972.25
2023-01-27T23:22:03.399Z,101977.47
2023-01-27T23:24:30.000Z,101982.75
2023-01-27T23:26:56.605Z,101994.22
2023-01-27T23:29:25.301Z,102007.25
2023-01-27T23:31:52.862Z,102003.84
2023-01-27T23:34:19.643Z,101993.34
2023-01-27T23:36:46.200Z,101985.63
2023-01-27T23:39:14.416Z,101989.06
2023-01-27T23:41:41.067Z,101991.59
2023-01-27T23:44:10.167Z,101987.22
2023-01-27T23:46:36.671Z,101981.97
2023-01-27T23:49:03.485Z,101986.25
2023-01-27T23:51:30.154Z,101999.22
2023-01-27T23:53:56.654Z,102006.97
2023-01-27T23:56:23.195Z,102007.75
2023-01-27T23:58:49.707Z,102014.78
